Addington, Oklahoma
Current Conditions -  °F | °C
As of 3:55 AM on Sunday 23 Nov 2014 (Local Time) from KDUC Reporting Station
Haze Haze  
Wind Chill: 52°   Ceiling: 200
Heat Index: 52°   Visibility: 0.75mi
Dew Point: 52°   Wind: 5mph
Humidity: 100%   Direction: 180°S
Pressure: 29.57"   Gusts: NA
Location:  34.24°N, 97.97°W
Report Text: KDUC 230955Z AUTO 18004KT 3/4SM BR OVC002 11/11 A2957 RMK AO2
Loading
Personal Weather Stations






























Interactive Weather Map New forecast layout! Learn more

10-Day Weather Forecast

Advertisements
Track Severe Weather on mobile